Tasman Sea — WDB5559 — position and weather

sailwx.info

Track history (hours):
 
Tides and Currents Weather Stations Pressure Air Temp Water Temp Dewpoint Dewpoint Depression Visibility Wind Speed Wind Dir Waves Ship Positions

Tasman Sea

Owner: Kirby Offshore Marine, LLC, Staten Island, NY. More information available from US FCC via Universal Licensing System and Coast Guard Vessel Documentation Center.

Last reported at 2016-Sep-28 21:33 UTC. Time now 2016-Sep-28 23:50 UTC.
Position N 42°21' W 070°29'.

Length 38 m; draft 3.4 m.

Type: . MMSI: 366910960.

Date/timePositionNaut miles runAvg speedWind from/ knotsBaromVisibWave heightAir tempDewpointWater temp
2016-Sep-28 21:33N 42°21' W 070°29'16 8.0
2016-Sep-28 19:33N 42°37' W 070°30'  
2016-Sep-26 13:09N 43°01' W 070°42'0 0.0
2016-Sep-26 11:30N 43°01' W 070°41'0 0.0
2016-Sep-26 08:27N 43°01' W 070°41'23 1.6
2016-Sep-25 17:33N 42°39' W 070°30'7 7.0
2016-Sep-25 16:33N 42°32' W 070°29'7 6.8
2016-Sep-25 15:33N 42°26' W 070°29'7 6.9
2016-Sep-25 14:33N 42°19' W 070°29'190 5.4
2016-Sep-24 03:34N 40°30' W 073°57'6 6.1
2016-Sep-24 02:34N 40°35' W 074°02'6 5.2
2016-Sep-24 01:29N 40°39' W 074°07'0 0.1
2016-Sep-24 00:32N 40°39' W 074°07'2 0.4
2016-Sep-23 19:31N 40°39' W 074°10'0 0.0
2016-Sep-23 17:31N 40°39' W 074°10'0 0.0
2016-Sep-23 16:31N 40°39' W 074°10'0 0.0
2016-Sep-23 15:28N 40°39' W 074°10'0 0.0
2016-Sep-23 13:31N 40°39' W 074°10'0 0.0
2016-Sep-23 09:33N 40°39' W 074°10'0 0.0
2016-Sep-23 06:33N 40°39' W 074°10'0 0.0
2016-Sep-23 04:34N 40°39' W 074°10'0 0.0
2016-Sep-23 03:34N 40°39' W 074°10'0 0.0
2016-Sep-23 02:33N 40°39' W 074°10'0 0.0
2016-Sep-23 01:33N 40°39' W 074°10'0 0.0
2016-Sep-23 00:34N 40°39' W 074°10'0 0.0
2016-Sep-22 23:33N 40°39' W 074°10'0 0.0
2016-Sep-22 20:33N 40°39' W 074°10'33 4.2
2016-Sep-22 12:33N 40°31' W 073°27'165 8.3
2016-Sep-21 16:33N 42°05' W 070°26'63 8.9
2016-Sep-21 09:29N 43°03' W 069°51'9 8.7
2016-Sep-21 08:28N 43°11' W 069°46'26 8.9
2016-Sep-21 05:33N 43°34' W 069°32'52 1.1
2016-Sep-19 07:23N 42°47' W 070°01'6 7.2
2016-Sep-19 06:31N 42°41' W 070°04'21 7.1
2016-Sep-19 03:29N 42°22' W 070°16'  
Track history (hours):
 
Tides and Currents Weather Stations Pressure Air Temp Water Temp Dewpoint Dewpoint Depression Visibility Wind Speed Wind Dir Waves Ship Positions

Tasman Sea

Owner: Kirby Offshore Marine, LLC, Staten Island, NY. More information available from US FCC via Universal Licensing System and Coast Guard Vessel Documentation Center.

Last reported at 2016-Sep-28 21:33 UTC. Time now 2016-Sep-28 23:50 UTC.
Position N 42°21' W 070°29'.

Length 38 m; draft 3.4 m.

Type: . MMSI: 366910960.

Date/timePositionNaut miles runAvg speedWind from/ knotsBaromVisibWave heightAir tempDewpointWater temp
2016-Sep-28 21:33N 42°21' W 070°29'16 8.0
2016-Sep-28 19:33N 42°37' W 070°30'  
2016-Sep-26 13:09N 43°01' W 070°42'0 0.0
2016-Sep-26 11:30N 43°01' W 070°41'0 0.0
2016-Sep-26 08:27N 43°01' W 070°41'23 1.6
2016-Sep-25 17:33N 42°39' W 070°30'7 7.0
2016-Sep-25 16:33N 42°32' W 070°29'7 6.8
2016-Sep-25 15:33N 42°26' W 070°29'7 6.9
2016-Sep-25 14:33N 42°19' W 070°29'190 5.4
2016-Sep-24 03:34N 40°30' W 073°57'6 6.1
2016-Sep-24 02:34N 40°35' W 074°02'6 5.2
2016-Sep-24 01:29N 40°39' W 074°07'0 0.1
2016-Sep-24 00:32N 40°39' W 074°07'2 0.4
2016-Sep-23 19:31N 40°39' W 074°10'0 0.0
2016-Sep-23 17:31N 40°39' W 074°10'0 0.0
2016-Sep-23 16:31N 40°39' W 074°10'0 0.0
2016-Sep-23 15:28N 40°39' W 074°10'0 0.0
2016-Sep-23 13:31N 40°39' W 074°10'0 0.0
2016-Sep-23 09:33N 40°39' W 074°10'0 0.0
2016-Sep-23 06:33N 40°39' W 074°10'0 0.0
2016-Sep-23 04:34N 40°39' W 074°10'0 0.0
2016-Sep-23 03:34N 40°39' W 074°10'0 0.0
2016-Sep-23 02:33N 40°39' W 074°10'0 0.0
2016-Sep-23 01:33N 40°39' W 074°10'0 0.0
2016-Sep-23 00:34N 40°39' W 074°10'0 0.0
2016-Sep-22 23:33N 40°39' W 074°10'0 0.0
2016-Sep-22 20:33N 40°39' W 074°10'33 4.2
2016-Sep-22 12:33N 40°31' W 073°27'165 8.3
2016-Sep-21 16:33N 42°05' W 070°26'63 8.9
2016-Sep-21 09:29N 43°03' W 069°51'9 8.7
2016-Sep-21 08:28N 43°11' W 069°46'26 8.9
2016-Sep-21 05:33N 43°34' W 069°32'52 1.1
2016-Sep-19 07:23N 42°47' W 070°01'6 7.2
2016-Sep-19 06:31N 42°41' W 070°04'21 7.1
2016-Sep-19 03:29N 42°22' W 070°16'  

Dump ship's entire track history